sensor_id;sensor_type;location;lat;lon;timestamp;P1;durP1;ratioP1;P2;durP2;ratioP2
43118;SDS011;28729;49.838;8.650;2023-03-01T00:03:24;19.57;;;7.53;;
43118;SDS011;28729;49.838;8.650;2023-03-01T00:07:26;16.08;;;7.28;;
43118;SDS011;28729;49.838;8.650;2023-03-01T00:11:28;16.40;;;6.85;;
43118;SDS011;28729;49.838;8.650;2023-03-01T00:15:32;15.38;;;6.93;;
43118;SDS011;28729;49.838;8.650;2023-03-01T00:19:33;17.75;;;7.18;;
43118;SDS011;28729;49.838;8.650;2023-03-01T00:23:35;15.13;;;7.00;;
43118;SDS011;28729;49.838;8.650;2023-03-01T00:27:37;21.17;;;7.32;;
43118;SDS011;28729;49.838;8.650;2023-03-01T00:31:39;16.40;;;7.30;;
43118;SDS011;28729;49.838;8.650;2023-03-01T00:35:41;12.93;;;7.00;;
43118;SDS011;28729;49.838;8.650;2023-03-01T00:39:42;15.20;;;7.20;;
43118;SDS011;28729;49.838;8.650;2023-03-01T00:43:44;14.10;;;6.53;;
43118;SDS011;28729;49.838;8.650;2023-03-01T00:47:47;15.57;;;7.30;;
43118;SDS011;28729;49.838;8.650;2023-03-01T00:51:49;16.25;;;7.32;;
43118;SDS011;28729;49.838;8.650;2023-03-01T00:55:51;12.65;;;6.90;;
43118;SDS011;28729;49.838;8.650;2023-03-01T00:59:53;17.35;;;8.88;;
43118;SDS011;28729;49.838;8.650;2023-03-01T01:03:56;17.23;;;7.70;;
43118;SDS011;28729;49.838;8.650;2023-03-01T01:07:58;16.67;;;7.22;;
43118;SDS011;28729;49.838;8.650;2023-03-01T01:12:00;17.77;;;8.07;;
43118;SDS011;28729;49.838;8.650;2023-03-01T01:16:02;16.10;;;7.82;;
43118;SDS011;28729;49.838;8.650;2023-03-01T01:20:04;17.83;;;7.90;;
43118;SDS011;28729;49.838;8.650;2023-03-01T01:24:06;16.80;;;7.35;;
43118;SDS011;28729;49.838;8.650;2023-03-01T01:28:08;19.93;;;8.07;;
43118;SDS011;28729;49.838;8.650;2023-03-01T01:32:09;18.80;;;7.72;;
43118;SDS011;28729;49.838;8.650;2023-03-01T01:36:11;14.60;;;7.20;;
43118;SDS011;28729;49.838;8.650;2023-03-01T01:40:13;20.80;;;8.88;;
43118;SDS011;28729;49.838;8.650;2023-03-01T01:44:19;14.95;;;7.85;;
43118;SDS011;28729;49.838;8.650;2023-03-01T01:48:26;13.15;;;7.05;;
43118;SDS011;28729;49.838;8.650;2023-03-01T01:52:41;17.52;;;7.88;;
43118;SDS011;28729;49.838;8.650;2023-03-01T01:56:44;16.37;;;7.50;;
43118;SDS011;28729;49.838;8.650;2023-03-01T02:00:50;17.50;;;7.75;;
43118;SDS011;28729;49.838;8.650;2023-03-01T02:04:54;19.10;;;8.13;;
43118;SDS011;28729;49.838;8.650;2023-03-01T02:09:06;18.10;;;8.48;;
43118;SDS011;28729;49.838;8.650;2023-03-01T02:13:11;16.90;;;8.32;;
43118;SDS011;28729;49.838;8.650;2023-03-01T02:17:15;15.93;;;7.38;;
43118;SDS011;28729;49.838;8.650;2023-03-01T02:25:34;15.02;;;7.22;;
43118;SDS011;28729;49.838;8.650;2023-03-01T02:29:57;15.40;;;7.75;;
43118;SDS011;28729;49.838;8.650;2023-03-01T02:33:58;18.77;;;8.05;;
43118;SDS011;28729;49.838;8.650;2023-03-01T02:38:02;17.30;;;7.60;;
43118;SDS011;28729;49.838;8.650;2023-03-01T02:42:09;19.33;;;8.15;;
43118;SDS011;28729;49.838;8.650;2023-03-01T02:46:24;15.40;;;7.57;;
43118;SDS011;28729;49.838;8.650;2023-03-01T02:59:01;16.23;;;8.30;;
43118;SDS011;28729;49.838;8.650;2023-03-01T03:07:05;16.13;;;7.65;;
43118;SDS011;28729;49.838;8.650;2023-03-01T03:11:07;20.52;;;8.60;;
43118;SDS011;28729;49.838;8.650;2023-03-01T03:15:09;17.15;;;8.13;;
43118;SDS011;28729;49.838;8.650;2023-03-01T03:19:14;16.35;;;8.10;;
43118;SDS011;28729;49.838;8.650;2023-03-01T03:23:16;18.20;;;8.85;;
43118;SDS011;28729;49.838;8.650;2023-03-01T03:27:18;15.35;;;5.72;;
43118;SDS011;28729;49.838;8.650;2023-03-01T03:31:19;15.95;;;7.13;;
43118;SDS011;28729;49.838;8.650;2023-03-01T03:35:25;18.10;;;8.55;;
43118;SDS011;28729;49.838;8.650;2023-03-01T03:39:31;18.13;;;7.88;;
43118;SDS011;28729;49.838;8.650;2023-03-01T03:43:36;17.83;;;8.68;;
43118;SDS011;28729;49.838;8.650;2023-03-01T03:47:39;19.23;;;8.40;;
43118;SDS011;28729;49.838;8.650;2023-03-01T03:51:41;14.82;;;7.80;;
43118;SDS011;28729;49.838;8.650;2023-03-01T03:55:42;20.63;;;9.40;;
43118;SDS011;28729;49.838;8.650;2023-03-01T03:59:45;16.33;;;8.18;;
43118;SDS011;28729;49.838;8.650;2023-03-01T04:03:47;19.45;;;9.52;;
43118;SDS011;28729;49.838;8.650;2023-03-01T04:07:48;20.70;;;9.38;;
43118;SDS011;28729;49.838;8.650;2023-03-01T04:11:50;19.98;;;8.95;;
43118;SDS011;28729;49.838;8.650;2023-03-01T04:15:52;19.05;;;8.82;;
43118;SDS011;28729;49.838;8.650;2023-03-01T04:19:54;17.58;;;8.75;;
43118;SDS011;28729;49.838;8.650;2023-03-01T04:23:56;19.08;;;9.05;;
43118;SDS011;28729;49.838;8.650;2023-03-01T04:27:57;17.33;;;8.70;;
43118;SDS011;28729;49.838;8.650;2023-03-01T04:31:59;23.83;;;8.93;;
43118;SDS011;28729;49.838;8.650;2023-03-01T04:36:01;15.40;;;8.23;;
43118;SDS011;28729;49.838;8.650;2023-03-01T04:40:06;19.70;;;8.38;;
43118;SDS011;28729;49.838;8.650;2023-03-01T04:44:17;17.05;;;8.50;;
43118;SDS011;28729;49.838;8.650;2023-03-01T04:48:22;22.38;;;9.13;;
43118;SDS011;28729;49.838;8.650;2023-03-01T04:52:23;21.63;;;9.23;;
43118;SDS011;28729;49.838;8.650;2023-03-01T04:56:26;18.80;;;8.75;;
43118;SDS011;28729;49.838;8.650;2023-03-01T05:00:27;19.80;;;9.07;;
43118;SDS011;28729;49.838;8.650;2023-03-01T05:04:30;22.30;;;9.50;;
43118;SDS011;28729;49.838;8.650;2023-03-01T05:08:31;19.50;;;9.38;;
43118;SDS011;28729;49.838;8.650;2023-03-01T05:12:35;20.42;;;9.82;;
43118;SDS011;28729;49.838;8.650;2023-03-01T05:16:38;19.10;;;8.95;;
43118;SDS011;28729;49.838;8.650;2023-03-01T05:20:40;21.40;;;9.45;;
43118;SDS011;28729;49.838;8.650;2023-03-01T05:24:42;21.65;;;9.07;;
43118;SDS011;28729;49.838;8.650;2023-03-01T05:28:44;20.15;;;8.98;;
43118;SDS011;28729;49.838;8.650;2023-03-01T05:32:47;20.73;;;9.43;;
43118;SDS011;28729;49.838;8.650;2023-03-01T05:36:50;20.08;;;9.52;;
43118;SDS011;28729;49.838;8.650;2023-03-01T05:40:54;19.92;;;8.82;;
43118;SDS011;28729;49.838;8.650;2023-03-01T05:44:56;17.65;;;8.77;;
43118;SDS011;28729;49.838;8.650;2023-03-01T05:48:58;17.95;;;8.57;;
43118;SDS011;28729;49.838;8.650;2023-03-01T05:53:00;21.52;;;9.23;;
43118;SDS011;28729;49.838;8.650;2023-03-01T05:57:06;16.40;;;8.57;;
43118;SDS011;28729;49.838;8.650;2023-03-01T06:01:11;17.88;;;9.13;;
43118;SDS011;28729;49.838;8.650;2023-03-01T06:05:14;20.00;;;9.85;;
43118;SDS011;28729;49.838;8.650;2023-03-01T06:09:16;20.08;;;9.65;;
43118;SDS011;28729;49.838;8.650;2023-03-01T06:13:18;18.63;;;9.18;;
43118;SDS011;28729;49.838;8.650;2023-03-01T06:17:19;20.58;;;10.63;;
43118;SDS011;28729;49.838;8.650;2023-03-01T06:21:21;25.98;;;9.77;;
43118;SDS011;28729;49.838;8.650;2023-03-01T06:25:24;24.45;;;9.52;;
43118;SDS011;28729;49.838;8.650;2023-03-01T06:29:28;20.90;;;9.15;;
43118;SDS011;28729;49.838;8.650;2023-03-01T06:33:30;25.52;;;9.48;;
43118;SDS011;28729;49.838;8.650;2023-03-01T06:37:32;19.35;;;8.50;;
43118;SDS011;28729;49.838;8.650;2023-03-01T06:41:33;21.48;;;8.80;;
43118;SDS011;28729;49.838;8.650;2023-03-01T06:45:36;21.77;;;9.80;;
43118;SDS011;28729;49.838;8.650;2023-03-01T06:49:38;24.85;;;9.57;;
43118;SDS011;28729;49.838;8.650;2023-03-01T06:53:40;17.92;;;9.10;;
43118;SDS011;28729;49.838;8.650;2023-03-01T06:57:44;18.42;;;8.80;;
43118;SDS011;28729;49.838;8.650;2023-03-01T07:01:46;17.95;;;8.45;;
43118;SDS011;28729;49.838;8.650;2023-03-01T07:05:48;21.00;;;8.75;;
43118;SDS011;28729;49.838;8.650;2023-03-01T07:09:53;22.92;;;8.82;;
43118;SDS011;28729;49.838;8.650;2023-03-01T07:13:55;24.77;;;11.15;;
43118;SDS011;28729;49.838;8.650;2023-03-01T07:21:59;21.52;;;9.88;;
43118;SDS011;28729;49.838;8.650;2023-03-01T07:26:04;16.88;;;9.02;;
43118;SDS011;28729;49.838;8.650;2023-03-01T07:30:06;22.27;;;10.53;;
43118;SDS011;28729;49.838;8.650;2023-03-01T07:34:15;21.42;;;10.27;;
43118;SDS011;28729;49.838;8.650;2023-03-01T07:38:16;20.70;;;9.30;;
43118;SDS011;28729;49.838;8.650;2023-03-01T07:42:20;19.23;;;9.20;;
43118;SDS011;28729;49.838;8.650;2023-03-01T07:46:22;14.27;;;7.10;;
43118;SDS011;28729;49.838;8.650;2023-03-01T07:50:24;17.63;;;8.80;;
43118;SDS011;28729;49.838;8.650;2023-03-01T07:54:27;18.50;;;9.07;;
43118;SDS011;28729;49.838;8.650;2023-03-01T07:58:29;14.90;;;8.63;;
43118;SDS011;28729;49.838;8.650;2023-03-01T08:02:31;21.83;;;9.20;;
43118;SDS011;28729;49.838;8.650;2023-03-01T08:06:33;14.43;;;6.57;;
43118;SDS011;28729;49.838;8.650;2023-03-01T08:10:37;16.90;;;8.82;;
43118;SDS011;28729;49.838;8.650;2023-03-01T08:14:38;18.55;;;9.18;;
43118;SDS011;28729;49.838;8.650;2023-03-01T08:18:40;21.83;;;9.52;;
43118;SDS011;28729;49.838;8.650;2023-03-01T08:22:45;17.70;;;9.30;;
43118;SDS011;28729;49.838;8.650;2023-03-01T08:26:46;20.88;;;9.52;;
43118;SDS011;28729;49.838;8.650;2023-03-01T08:30:48;19.00;;;9.57;;
43118;SDS011;28729;49.838;8.650;2023-03-01T08:34:50;18.13;;;9.17;;
43118;SDS011;28729;49.838;8.650;2023-03-01T08:38:54;19.13;;;9.18;;
43118;SDS011;28729;49.838;8.650;2023-03-01T08:42:57;18.02;;;9.05;;
43118;SDS011;28729;49.838;8.650;2023-03-01T08:46:59;17.27;;;9.07;;
43118;SDS011;28729;49.838;8.650;2023-03-01T08:51:08;18.37;;;9.07;;
43118;SDS011;28729;49.838;8.650;2023-03-01T08:55:10;17.73;;;8.90;;
43118;SDS011;28729;49.838;8.650;2023-03-01T08:59:12;17.08;;;9.30;;
43118;SDS011;28729;49.838;8.650;2023-03-01T09:03:15;20.48;;;9.90;;
43118;SDS011;28729;49.838;8.650;2023-03-01T09:07:16;18.63;;;9.02;;
43118;SDS011;28729;49.838;8.650;2023-03-01T09:11:20;17.35;;;8.98;;
43118;SDS011;28729;49.838;8.650;2023-03-01T09:15:24;17.63;;;9.43;;
43118;SDS011;28729;49.838;8.650;2023-03-01T09:19:25;20.52;;;9.50;;
43118;SDS011;28729;49.838;8.650;2023-03-01T09:23:27;21.20;;;9.47;;
43118;SDS011;28729;49.838;8.650;2023-03-01T09:27:29;19.52;;;8.98;;
43118;SDS011;28729;49.838;8.650;2023-03-01T09:31:30;18.20;;;10.70;;
43118;SDS011;28729;49.838;8.650;2023-03-01T09:35:34;22.20;;;10.73;;
43118;SDS011;28729;49.838;8.650;2023-03-01T09:39:37;20.77;;;10.93;;
43118;SDS011;28729;49.838;8.650;2023-03-01T09:47:42;20.40;;;10.35;;
43118;SDS011;28729;49.838;8.650;2023-03-01T09:51:48;17.97;;;9.73;;
43118;SDS011;28729;49.838;8.650;2023-03-01T09:56:05;18.85;;;11.05;;
43118;SDS011;28729;49.838;8.650;2023-03-01T10:08:52;22.00;;;10.85;;
43118;SDS011;28729;49.838;8.650;2023-03-01T10:12:58;19.65;;;11.10;;
43118;SDS011;28729;49.838;8.650;2023-03-01T10:17:10;22.63;;;11.50;;
43118;SDS011;28729;49.838;8.650;2023-03-01T10:21:16;22.13;;;11.55;;
43118;SDS011;28729;49.838;8.650;2023-03-01T10:29:59;22.17;;;11.07;;
43118;SDS011;28729;49.838;8.650;2023-03-01T10:34:16;23.10;;;11.57;;
43118;SDS011;28729;49.838;8.650;2023-03-01T10:38:20;24.02;;;12.63;;
43118;SDS011;28729;49.838;8.650;2023-03-01T10:42:25;22.17;;;11.77;;
43118;SDS011;28729;49.838;8.650;2023-03-01T10:46:32;19.52;;;10.93;;
43118;SDS011;28729;49.838;8.650;2023-03-01T10:50:37;23.73;;;10.88;;
43118;SDS011;28729;49.838;8.650;2023-03-01T10:54:42;21.17;;;11.45;;
43118;SDS011;28729;49.838;8.650;2023-03-01T10:59:00;19.45;;;10.60;;
43118;SDS011;28729;49.838;8.650;2023-03-01T11:03:10;21.38;;;10.93;;
43118;SDS011;28729;49.838;8.650;2023-03-01T11:07:14;23.10;;;12.13;;
43118;SDS011;28729;49.838;8.650;2023-03-01T11:11:17;23.08;;;12.10;;
43118;SDS011;28729;49.838;8.650;2023-03-01T11:15:20;20.50;;;10.80;;
43118;SDS011;28729;49.838;8.650;2023-03-01T11:19:31;21.77;;;11.48;;
43118;SDS011;28729;49.838;8.650;2023-03-01T11:23:34;16.73;;;10.32;;
43118;SDS011;28729;49.838;8.650;2023-03-01T11:27:41;19.42;;;10.70;;
43118;SDS011;28729;49.838;8.650;2023-03-01T11:31:45;19.45;;;10.45;;
43118;SDS011;28729;49.838;8.650;2023-03-01T11:44:29;14.80;;;8.80;;
43118;SDS011;28729;49.838;8.650;2023-03-01T11:48:41;14.18;;;8.38;;
43118;SDS011;28729;49.838;8.650;2023-03-01T11:57:58;16.92;;;9.13;;
43118;SDS011;28729;49.838;8.650;2023-03-01T12:06:42;18.42;;;9.43;;
43118;SDS011;28729;49.838;8.650;2023-03-01T12:24:45;16.42;;;9.35;;
43118;SDS011;28729;49.838;8.650;2023-03-01T12:28:52;14.65;;;9.23;;
43118;SDS011;28729;49.838;8.650;2023-03-01T12:37:51;13.98;;;9.32;;
43118;SDS011;28729;49.838;8.650;2023-03-01T12:42:03;15.63;;;9.02;;
43118;SDS011;28729;49.838;8.650;2023-03-01T12:50:39;15.95;;;9.25;;
43118;SDS011;28729;49.838;8.650;2023-03-01T12:54:43;16.02;;;9.32;;
43118;SDS011;28729;49.838;8.650;2023-03-01T13:03:17;15.57;;;9.53;;
43118;SDS011;28729;49.838;8.650;2023-03-01T13:11:40;13.05;;;8.52;;
43118;SDS011;28729;49.838;8.650;2023-03-01T13:15:45;10.88;;;7.65;;
43118;SDS011;28729;49.838;8.650;2023-03-01T13:19:55;14.85;;;8.55;;
43118;SDS011;28729;49.838;8.650;2023-03-01T13:24:00;14.90;;;8.35;;
43118;SDS011;28729;49.838;8.650;2023-03-01T13:32:44;13.93;;;8.68;;
43118;SDS011;28729;49.838;8.650;2023-03-01T13:44:51;21.80;;;9.25;;
43118;SDS011;28729;49.838;8.650;2023-03-01T13:48:55;17.27;;;9.17;;
43118;SDS011;28729;49.838;8.650;2023-03-01T13:52:59;13.52;;;7.70;;
43118;SDS011;28729;49.838;8.650;2023-03-01T13:57:03;14.80;;;7.80;;
43118;SDS011;28729;49.838;8.650;2023-03-01T14:01:07;12.27;;;7.68;;
43118;SDS011;28729;49.838;8.650;2023-03-01T14:05:21;13.30;;;7.53;;
43118;SDS011;28729;49.838;8.650;2023-03-01T14:09:24;12.25;;;7.15;;
43118;SDS011;28729;49.838;8.650;2023-03-01T14:18:04;13.50;;;7.07;;
43118;SDS011;28729;49.838;8.650;2023-03-01T14:26:21;9.95;;;5.97;;
43118;SDS011;28729;49.838;8.650;2023-03-01T14:30:30;15.45;;;7.55;;
43118;SDS011;28729;49.838;8.650;2023-03-01T14:34:38;12.20;;;6.82;;
43118;SDS011;28729;49.838;8.650;2023-03-01T14:38:45;12.25;;;6.93;;
43118;SDS011;28729;49.838;8.650;2023-03-01T14:42:49;11.68;;;5.97;;
43118;SDS011;28729;49.838;8.650;2023-03-01T14:46:51;12.40;;;7.17;;
43118;SDS011;28729;49.838;8.650;2023-03-01T14:50:57;12.57;;;6.55;;
43118;SDS011;28729;49.838;8.650;2023-03-01T14:54:59;12.90;;;7.30;;
43118;SDS011;28729;49.838;8.650;2023-03-01T14:59:01;12.65;;;6.95;;
43118;SDS011;28729;49.838;8.650;2023-03-01T15:03:07;12.40;;;6.63;;
43118;SDS011;28729;49.838;8.650;2023-03-01T15:07:16;17.35;;;7.63;;
43118;SDS011;28729;49.838;8.650;2023-03-01T15:11:27;13.00;;;7.13;;
43118;SDS011;28729;49.838;8.650;2023-03-01T15:15:31;15.50;;;8.13;;
43118;SDS011;28729;49.838;8.650;2023-03-01T15:19:35;16.85;;;8.25;;
43118;SDS011;28729;49.838;8.650;2023-03-01T15:23:37;17.65;;;7.60;;
43118;SDS011;28729;49.838;8.650;2023-03-01T15:27:43;11.60;;;7.03;;
43118;SDS011;28729;49.838;8.650;2023-03-01T15:32:01;14.95;;;8.02;;
43118;SDS011;28729;49.838;8.650;2023-03-01T15:40:33;15.45;;;7.68;;
43118;SDS011;28729;49.838;8.650;2023-03-01T15:44:36;14.65;;;7.07;;
43118;SDS011;28729;49.838;8.650;2023-03-01T15:48:46;15.15;;;7.13;;
43118;SDS011;28729;49.838;8.650;2023-03-01T15:52:50;11.52;;;6.72;;
43118;SDS011;28729;49.838;8.650;2023-03-01T15:56:52;12.77;;;7.10;;
43118;SDS011;28729;49.838;8.650;2023-03-01T16:00:54;15.25;;;7.47;;
43118;SDS011;28729;49.838;8.650;2023-03-01T16:05:03;14.40;;;8.05;;
43118;SDS011;28729;49.838;8.650;2023-03-01T16:09:05;13.95;;;7.00;;
43118;SDS011;28729;49.838;8.650;2023-03-01T16:13:07;11.48;;;6.82;;
43118;SDS011;28729;49.838;8.650;2023-03-01T16:17:09;15.50;;;8.00;;
43118;SDS011;28729;49.838;8.650;2023-03-01T16:21:16;13.30;;;7.85;;
43118;SDS011;28729;49.838;8.650;2023-03-01T16:25:21;12.60;;;7.65;;
43118;SDS011;28729;49.838;8.650;2023-03-01T16:29:24;13.40;;;7.57;;
43118;SDS011;28729;49.838;8.650;2023-03-01T16:33:28;14.88;;;7.70;;
43118;SDS011;28729;49.838;8.650;2023-03-01T16:37:34;13.55;;;7.15;;
43118;SDS011;28729;49.838;8.650;2023-03-01T16:41:38;16.33;;;8.05;;
43118;SDS011;28729;49.838;8.650;2023-03-01T16:45:39;12.63;;;6.90;;
43118;SDS011;28729;49.838;8.650;2023-03-01T16:49:42;14.35;;;8.13;;
43118;SDS011;28729;49.838;8.650;2023-03-01T16:53:43;14.23;;;7.70;;
43118;SDS011;28729;49.838;8.650;2023-03-01T16:57:47;14.88;;;7.45;;
43118;SDS011;28729;49.838;8.650;2023-03-01T17:01:49;14.52;;;7.28;;
43118;SDS011;28729;49.838;8.650;2023-03-01T17:05:51;37.05;;;17.25;;
43118;SDS011;28729;49.838;8.650;2023-03-01T17:09:53;57.53;;;22.20;;
43118;SDS011;28729;49.838;8.650;2023-03-01T17:13:54;52.97;;;24.65;;
43118;SDS011;28729;49.838;8.650;2023-03-01T17:17:56;25.67;;;13.73;;
43118;SDS011;28729;49.838;8.650;2023-03-01T17:21:58;29.83;;;16.55;;
43118;SDS011;28729;49.838;8.650;2023-03-01T17:26:01;32.20;;;16.75;;
43118;SDS011;28729;49.838;8.650;2023-03-01T17:30:05;54.33;;;21.95;;
43118;SDS011;28729;49.838;8.650;2023-03-01T17:34:13;66.35;;;31.42;;
43118;SDS011;28729;49.838;8.650;2023-03-01T17:42:18;28.60;;;14.48;;
43118;SDS011;28729;49.838;8.650;2023-03-01T17:46:21;28.67;;;14.52;;
43118;SDS011;28729;49.838;8.650;2023-03-01T17:50:23;38.17;;;15.00;;
43118;SDS011;28729;49.838;8.650;2023-03-01T17:54:24;34.17;;;15.73;;
43118;SDS011;28729;49.838;8.650;2023-03-01T17:58:26;31.73;;;13.13;;
43118;SDS011;28729;49.838;8.650;2023-03-01T18:02:31;22.33;;;10.65;;
43118;SDS011;28729;49.838;8.650;2023-03-01T18:06:32;31.50;;;13.73;;
43118;SDS011;28729;49.838;8.650;2023-03-01T18:10:37;26.10;;;12.13;;
43118;SDS011;28729;49.838;8.650;2023-03-01T18:14:39;17.10;;;9.25;;
43118;SDS011;28729;49.838;8.650;2023-03-01T18:18:41;18.05;;;9.68;;
43118;SDS011;28729;49.838;8.650;2023-03-01T18:22:45;26.05;;;12.77;;
43118;SDS011;28729;49.838;8.650;2023-03-01T18:26:48;43.05;;;17.92;;
43118;SDS011;28729;49.838;8.650;2023-03-01T18:30:56;25.65;;;12.05;;
43118;SDS011;28729;49.838;8.650;2023-03-01T18:34:59;22.27;;;10.05;;
43118;SDS011;28729;49.838;8.650;2023-03-01T18:39:01;22.43;;;10.37;;
43118;SDS011;28729;49.838;8.650;2023-03-01T18:43:04;21.08;;;10.75;;
43118;SDS011;28729;49.838;8.650;2023-03-01T18:47:05;34.28;;;13.73;;
43118;SDS011;28729;49.838;8.650;2023-03-01T18:51:13;23.63;;;10.40;;
43118;SDS011;28729;49.838;8.650;2023-03-01T18:55:17;32.70;;;14.43;;
43118;SDS011;28729;49.838;8.650;2023-03-01T18:59:23;57.28;;;22.00;;
43118;SDS011;28729;49.838;8.650;2023-03-01T19:03:24;52.45;;;20.83;;
43118;SDS011;28729;49.838;8.650;2023-03-01T19:07:27;75.13;;;27.55;;
43118;SDS011;28729;49.838;8.650;2023-03-01T19:11:29;72.38;;;28.25;;
43118;SDS011;28729;49.838;8.650;2023-03-01T19:15:35;72.30;;;29.15;;
43118;SDS011;28729;49.838;8.650;2023-03-01T19:19:39;94.22;;;41.97;;
43118;SDS011;28729;49.838;8.650;2023-03-01T19:23:41;56.40;;;26.92;;
43118;SDS011;28729;49.838;8.650;2023-03-01T19:27:43;27.98;;;15.95;;
43118;SDS011;28729;49.838;8.650;2023-03-01T19:31:45;47.80;;;20.02;;
43118;SDS011;28729;49.838;8.650;2023-03-01T19:35:48;33.38;;;15.48;;
43118;SDS011;28729;49.838;8.650;2023-03-01T19:39:49;35.88;;;14.27;;
43118;SDS011;28729;49.838;8.650;2023-03-01T19:43:52;32.37;;;13.50;;
43118;SDS011;28729;49.838;8.650;2023-03-01T19:47:54;82.55;;;25.98;;
43118;SDS011;28729;49.838;8.650;2023-03-01T19:51:57;76.32;;;25.75;;
43118;SDS011;28729;49.838;8.650;2023-03-01T19:56:01;54.67;;;19.02;;
43118;SDS011;28729;49.838;8.650;2023-03-01T20:00:03;34.13;;;13.32;;
43118;SDS011;28729;49.838;8.650;2023-03-01T20:04:12;20.20;;;11.02;;
43118;SDS011;28729;49.838;8.650;2023-03-01T20:08:14;37.28;;;17.55;;
43118;SDS011;28729;49.838;8.650;2023-03-01T20:12:15;36.60;;;17.95;;
43118;SDS011;28729;49.838;8.650;2023-03-01T20:16:19;40.70;;;20.30;;
43118;SDS011;28729;49.838;8.650;2023-03-01T20:20:23;28.60;;;13.05;;
43118;SDS011;28729;49.838;8.650;2023-03-01T20:24:25;36.10;;;16.95;;
43118;SDS011;28729;49.838;8.650;2023-03-01T20:28:26;26.02;;;11.57;;
43118;SDS011;28729;49.838;8.650;2023-03-01T20:32:29;19.15;;;9.27;;
43118;SDS011;28729;49.838;8.650;2023-03-01T20:40:35;17.33;;;8.02;;
43118;SDS011;28729;49.838;8.650;2023-03-01T20:44:37;14.48;;;6.45;;
43118;SDS011;28729;49.838;8.650;2023-03-01T20:48:43;19.38;;;8.70;;
43118;SDS011;28729;49.838;8.650;2023-03-01T20:52:46;18.23;;;8.77;;
43118;SDS011;28729;49.838;8.650;2023-03-01T20:56:48;17.17;;;8.68;;
43118;SDS011;28729;49.838;8.650;2023-03-01T21:00:50;17.92;;;8.98;;
43118;SDS011;28729;49.838;8.650;2023-03-01T21:04:52;18.10;;;7.75;;
43118;SDS011;28729;49.838;8.650;2023-03-01T21:08:54;20.65;;;7.43;;
43118;SDS011;28729;49.838;8.650;2023-03-01T21:12:56;19.88;;;9.20;;
43118;SDS011;28729;49.838;8.650;2023-03-01T21:16:58;16.90;;;8.05;;
43118;SDS011;28729;49.838;8.650;2023-03-01T21:21:01;17.83;;;8.33;;
43118;SDS011;28729;49.838;8.650;2023-03-01T21:25:07;17.98;;;8.15;;
43118;SDS011;28729;49.838;8.650;2023-03-01T21:29:09;9.90;;;5.93;;
43118;SDS011;28729;49.838;8.650;2023-03-01T21:33:12;18.63;;;8.10;;
43118;SDS011;28729;49.838;8.650;2023-03-01T21:37:14;17.48;;;8.75;;
43118;SDS011;28729;49.838;8.650;2023-03-01T21:45:20;17.58;;;7.95;;
43118;SDS011;28729;49.838;8.650;2023-03-01T21:49:22;21.23;;;9.23;;
43118;SDS011;28729;49.838;8.650;2023-03-01T21:53:24;17.05;;;8.68;;
43118;SDS011;28729;49.838;8.650;2023-03-01T22:01:28;18.70;;;8.18;;
43118;SDS011;28729;49.838;8.650;2023-03-01T22:05:30;16.43;;;7.63;;
43118;SDS011;28729;49.838;8.650;2023-03-01T22:09:32;17.77;;;8.40;;
43118;SDS011;28729;49.838;8.650;2023-03-01T22:13:36;17.75;;;9.02;;
43118;SDS011;28729;49.838;8.650;2023-03-01T22:17:38;18.73;;;9.40;;
43118;SDS011;28729;49.838;8.650;2023-03-01T22:21:40;15.15;;;8.45;;
43118;SDS011;28729;49.838;8.650;2023-03-01T22:25:43;20.73;;;9.02;;
43118;SDS011;28729;49.838;8.650;2023-03-01T22:29:45;19.80;;;8.75;;
43118;SDS011;28729;49.838;8.650;2023-03-01T22:33:46;20.85;;;9.65;;
43118;SDS011;28729;49.838;8.650;2023-03-01T22:37:48;17.90;;;8.60;;
43118;SDS011;28729;49.838;8.650;2023-03-01T22:41:49;18.33;;;9.02;;
43118;SDS011;28729;49.838;8.650;2023-03-01T22:45:51;24.50;;;11.02;;
43118;SDS011;28729;49.838;8.650;2023-03-01T22:49:53;20.60;;;8.98;;
43118;SDS011;28729;49.838;8.650;2023-03-01T22:53:56;23.95;;;10.85;;
43118;SDS011;28729;49.838;8.650;2023-03-01T22:57:58;25.48;;;10.60;;
43118;SDS011;28729;49.838;8.650;2023-03-01T23:02:00;20.63;;;8.88;;
43118;SDS011;28729;49.838;8.650;2023-03-01T23:06:02;23.37;;;9.63;;
43118;SDS011;28729;49.838;8.650;2023-03-01T23:10:03;23.17;;;10.30;;
43118;SDS011;28729;49.838;8.650;2023-03-01T23:14:06;21.48;;;9.45;;
43118;SDS011;28729;49.838;8.650;2023-03-01T23:18:08;20.92;;;9.45;;
43118;SDS011;28729;49.838;8.650;2023-03-01T23:22:09;20.40;;;9.48;;
43118;SDS011;28729;49.838;8.650;2023-03-01T23:26:11;19.63;;;10.25;;
43118;SDS011;28729;49.838;8.650;2023-03-01T23:30:13;22.15;;;9.75;;
43118;SDS011;28729;49.838;8.650;2023-03-01T23:34:15;23.00;;;10.38;;
43118;SDS011;28729;49.838;8.650;2023-03-01T23:38:16;18.75;;;10.15;;
43118;SDS011;28729;49.838;8.650;2023-03-01T23:42:18;20.50;;;9.27;;
43118;SDS011;28729;49.838;8.650;2023-03-01T23:46:21;21.83;;;10.52;;
43118;SDS011;28729;49.838;8.650;2023-03-01T23:50:24;20.25;;;9.63;;
43118;SDS011;28729;49.838;8.650;2023-03-01T23:54:26;19.55;;;9.50;;
43118;SDS011;28729;49.838;8.650;2023-03-01T23:58:27;21.48;;;10.32;;
